createdAt,value
2022-07-29T00:01:43.233Z,100565.54
2022-07-29T00:04:11.514Z,100565.97
2022-07-29T00:06:39.426Z,100566.96
2022-07-29T00:09:07.911Z,100568.70
2022-07-29T00:11:36.791Z,100568.56
2022-07-29T00:14:04.721Z,100567.91
2022-07-29T00:16:32.608Z,100567.15
2022-07-29T00:19:02.240Z,100566.63
2022-07-29T00:21:30.294Z,100566.14
2022-07-29T00:23:58.104Z,100569.31
2022-07-29T00:26:28.061Z,100568.80
2022-07-29T00:29:17.164Z,100570.48
2022-07-29T00:31:43.322Z,100570.08
2022-07-29T00:34:31.220Z,100566.10
2022-07-29T00:36:58.799Z,100568.35
2022-07-29T00:39:26.509Z,100558.79
2022-07-29T00:41:55.221Z,100558.25
2022-07-29T00:44:22.774Z,100557.23
2022-07-29T00:46:50.436Z,100559.55
2022-07-29T00:49:18.640Z,100558.35
2022-07-29T00:51:46.965Z,100558.33
2022-07-29T00:54:15.642Z,100557.38
2022-07-29T00:56:43.793Z,100555.77
2022-07-29T00:59:11.449Z,100557.27
2022-07-29T01:01:39.090Z,100557.70
2022-07-29T01:04:08.306Z,100557.98
2022-07-29T01:06:37.010Z,100559.84
2022-07-29T01:09:04.983Z,100559.89
2022-07-29T01:11:33.587Z,100552.73
2022-07-29T01:14:01.953Z,100550.77
2022-07-29T01:16:33.741Z,100562.39
2022-07-29T01:19:08.777Z,100555.52
2022-07-29T01:21:52.503Z,100559.58
2022-07-29T01:24:34.574Z,100555.85
2022-07-29T01:27:16.311Z,100553.66
2022-07-29T01:29:50.049Z,100550.29
2022-07-29T01:32:28.326Z,100553.77
2022-07-29T01:35:02.890Z,100555.14
2022-07-29T01:37:38.724Z,100549.39
2022-07-29T01:40:12.518Z,100546.80
2022-07-29T01:42:44.435Z,100547.20
2022-07-29T01:45:17.747Z,100548.17
2022-07-29T01:47:55.300Z,100544.29
2022-07-29T01:50:32.491Z,100542.81
2022-07-29T01:53:02.878Z,100542.41
2022-07-29T01:55:33.028Z,100545.09
2022-07-29T01:58:03.793Z,100542.64
2022-07-29T02:00:32.952Z,100542.67
2022-07-29T02:03:04.576Z,100536.73
2022-07-29T02:05:33.896Z,100533.01
2022-07-29T02:08:02.722Z,100532.36
2022-07-29T02:10:34.187Z,100533.80
2022-07-29T02:13:04.273Z,100530.10
2022-07-29T02:15:34.656Z,100525.02
2022-07-29T02:18:06.083Z,100524.67
2022-07-29T02:20:34.705Z,100520.73
2022-07-29T02:23:04.423Z,100522.55
2022-07-29T02:25:36.989Z,100522.44
2022-07-29T02:28:07.395Z,100521.16
2022-07-29T02:30:37.697Z,100527.80
2022-07-29T02:33:06.944Z,100529.30
2022-07-29T02:35:35.122Z,100530.42
2022-07-29T02:38:23.489Z,100530.31
2022-07-29T02:40:53.919Z,100525.97
2022-07-29T02:43:23.308Z,100533.13
2022-07-29T02:45:53.746Z,100541.29
2022-07-29T02:48:28.735Z,100538.59
2022-07-29T02:51:06.012Z,100532.59
2022-07-29T02:53:36.161Z,100536.55
2022-07-29T02:56:11.484Z,100535.94
2022-07-29T02:58:41.736Z,100533.05
2022-07-29T03:01:20.899Z,100530.75
2022-07-29T03:03:51.605Z,100531.11
2022-07-29T03:06:28.559Z,100529.36
2022-07-29T03:09:12.603Z,100536.77
2022-07-29T03:11:49.552Z,100533.68
2022-07-29T03:14:20.023Z,100538.20
2022-07-29T03:16:48.564Z,100536.36
2022-07-29T03:19:16.975Z,100538.04
2022-07-29T03:21:45.683Z,100540.40
2022-07-29T03:24:26.508Z,100539.64
2022-07-29T03:26:55.937Z,100537.33
2022-07-29T03:29:23.594Z,100537.23
2022-07-29T03:32:01.412Z,100539.02
2022-07-29T03:34:30.432Z,100541.34
2022-07-29T03:36:58.737Z,100542.06
2022-07-29T03:39:32.130Z,100547.17
2022-07-29T03:42:01.707Z,100549.64
2022-07-29T03:44:32.115Z,100549.14
2022-07-29T03:47:02.829Z,100547.86
2022-07-29T03:49:31.615Z,100552.27
2022-07-29T03:51:59.802Z,100552.36
2022-07-29T03:54:27.872Z,100557.54
2022-07-29T03:56:57.980Z,100561.83
2022-07-29T03:59:26.671Z,100560.08
2022-07-29T04:01:56.415Z,100559.27
2022-07-29T04:04:24.075Z,100551.93
2022-07-29T04:06:55.194Z,100551.70
2022-07-29T04:09:22.864Z,100556.02
2022-07-29T04:12:01.602Z,100552.84
2022-07-29T04:14:33.111Z,100554.25
2022-07-29T04:17:02.240Z,100549.03
2022-07-29T04:19:30.465Z,100550.48
2022-07-29T04:21:58.559Z,100549.75
2022-07-29T04:24:26.173Z,100549.13
2022-07-29T04:26:54.310Z,100541.81
2022-07-29T04:29:24.044Z,100546.98
2022-07-29T04:31:51.682Z,100542.58
2022-07-29T04:34:20.004Z,100538.31
2022-07-29T04:36:50.058Z,100540.18
2022-07-29T04:39:22.677Z,100538.16
2022-07-29T04:41:50.987Z,100537.23
2022-07-29T04:44:20.112Z,100538.20
2022-07-29T04:46:47.895Z,100542.02
2022-07-29T04:49:15.506Z,100538.20
2022-07-29T04:51:43.106Z,100535.02
2022-07-29T04:54:11.056Z,100536.63
2022-07-29T04:56:39.164Z,100539.48
2022-07-29T04:59:06.802Z,100536.63
2022-07-29T05:01:34.448Z,100538.30
2022-07-29T05:04:02.132Z,100541.33
2022-07-29T05:06:31.121Z,100541.75
2022-07-29T05:08:58.652Z,100540.77
2022-07-29T05:11:30.224Z,100541.73
2022-07-29T05:13:58.247Z,100542.16
2022-07-29T05:16:26.085Z,100549.20
2022-07-29T05:18:53.822Z,100551.05
2022-07-29T05:21:21.316Z,100547.08
2022-07-29T05:23:49.112Z,100545.25
2022-07-29T05:26:18.928Z,100543.09
2022-07-29T05:28:46.512Z,100547.39
2022-07-29T05:31:14.981Z,100545.20
2022-07-29T05:33:42.554Z,100543.38
2022-07-29T05:36:10.139Z,100542.33
2022-07-29T05:38:38.192Z,100541.91
2022-07-29T05:41:06.225Z,100534.64
2022-07-29T05:43:34.436Z,100537.19
2022-07-29T05:46:02.601Z,100537.63
2022-07-29T05:48:32.072Z,100537.85
2022-07-29T05:50:59.604Z,100543.61
2022-07-29T05:53:27.263Z,100545.30
2022-07-29T05:55:59.120Z,100544.89
2022-07-29T05:58:26.755Z,100549.83
2022-07-29T06:00:54.346Z,100546.45
2022-07-29T06:03:21.857Z,100544.09
2022-07-29T06:05:49.429Z,100543.35
2022-07-29T06:08:17.666Z,100540.24
2022-07-29T06:10:46.291Z,100539.16
2022-07-29T06:13:16.169Z,100539.10
2022-07-29T06:15:43.923Z,100529.57
2022-07-29T06:18:13.666Z,100530.58
2022-07-29T06:20:41.771Z,100527.42
2022-07-29T06:23:10.256Z,100523.16
2022-07-29T06:25:38.053Z,100527.52
2022-07-29T06:28:05.882Z,100529.30
2022-07-29T06:30:33.544Z,100528.44
2022-07-29T06:33:02.364Z,100530.38
2022-07-29T06:35:41.413Z,100534.21
2022-07-29T06:38:30.060Z,100533.31
2022-07-29T06:41:03.015Z,100531.70
2022-07-29T06:43:33.969Z,100533.23
2022-07-29T06:46:03.799Z,100536.55
2022-07-29T06:48:32.192Z,100537.36
2022-07-29T06:51:00.179Z,100541.17
2022-07-29T06:53:28.811Z,100546.61
2022-07-29T06:55:56.628Z,100543.29
2022-07-29T06:58:24.254Z,100537.86
2022-07-29T07:00:52.135Z,100536.52
2022-07-29T07:03:20.340Z,100533.86
2022-07-29T07:05:47.984Z,100529.32
2022-07-29T07:08:16.515Z,100531.95
2022-07-29T07:10:44.438Z,100531.36
2022-07-29T07:13:12.152Z,100529.26
2022-07-29T07:15:40.424Z,100532.94
2022-07-29T07:18:08.214Z,100530.40
2022-07-29T07:20:36.446Z,100523.16
2022-07-29T07:23:04.958Z,100522.21
2022-07-29T07:25:33.150Z,100523.55
2022-07-29T07:28:00.753Z,100515.27
2022-07-29T07:30:28.581Z,100514.58
2022-07-29T07:32:56.261Z,100509.39
2022-07-29T07:35:23.888Z,100514.47
2022-07-29T07:37:51.463Z,100514.73
2022-07-29T07:40:19.094Z,100515.34
2022-07-29T07:42:46.912Z,100511.84
2022-07-29T07:45:14.675Z,100511.38
2022-07-29T07:47:44.244Z,100507.54
2022-07-29T07:50:18.249Z,100505.64
2022-07-29T07:52:51.244Z,100510.52
2022-07-29T07:55:19.451Z,100511.36
2022-07-29T07:57:47.538Z,100510.73
2022-07-29T08:00:17.164Z,100505.84
2022-07-29T08:02:45.649Z,100511.30
2022-07-29T08:05:17.151Z,100509.90
2022-07-29T08:07:46.501Z,100506.75
2022-07-29T08:10:14.622Z,100512.74
2022-07-29T08:12:43.593Z,100506.98
2022-07-29T08:15:11.263Z,100505.94
2022-07-29T08:17:38.965Z,100503.98
2022-07-29T08:20:08.041Z,100500.71
2022-07-29T08:22:36.080Z,100504.91
2022-07-29T08:25:04.420Z,100507.23
2022-07-29T08:27:47.800Z,100510.48
2022-07-29T08:30:15.608Z,100511.39
2022-07-29T08:32:53.551Z,100510.27
2022-07-29T08:35:22.725Z,100508.94
2022-07-29T08:37:51.249Z,100505.14
2022-07-29T08:40:18.960Z,100511.63
2022-07-29T08:42:46.835Z,100508.32
2022-07-29T08:45:14.479Z,100507.71
2022-07-29T08:47:43.992Z,100508.45
2022-07-29T08:50:13.377Z,100508.35
2022-07-29T08:52:42.294Z,100505.73
2022-07-29T08:55:11.292Z,100501.84
2022-07-29T08:57:43.422Z,100496.15
2022-07-29T09:00:21.250Z,100497.34
2022-07-29T09:02:57.173Z,100497.47
2022-07-29T09:05:26.546Z,100495.98
2022-07-29T09:07:54.410Z,100491.60
2022-07-29T09:10:22.435Z,100490.86
2022-07-29T09:12:50.260Z,100488.70
2022-07-29T09:15:19.010Z,100487.55
2022-07-29T09:17:49.510Z,100488.44
2022-07-29T09:20:19.282Z,100487.54
2022-07-29T09:22:49.647Z,100475.80
2022-07-29T09:25:33.463Z,100473.15
2022-07-29T09:28:08.490Z,100476.68
2022-07-29T09:30:37.075Z,100476.28
2022-07-29T09:33:04.796Z,100478.88
2022-07-29T09:35:32.474Z,100477.56
2022-07-29T09:38:11.816Z,100473.95
2022-07-29T09:40:40.346Z,100470.81
2022-07-29T09:43:14.337Z,100465.77
2022-07-29T09:45:42.292Z,100468.16
2022-07-29T09:48:20.861Z,100464.66
2022-07-29T09:50:50.128Z,100468.20
2022-07-29T09:53:33.171Z,100470.61
2022-07-29T09:56:01.551Z,100463.56
2022-07-29T09:58:29.364Z,100459.21
2022-07-29T10:00:57.730Z,100456.00
2022-07-29T10:03:25.837Z,100460.39
2022-07-29T10:06:08.860Z,100459.75
2022-07-29T10:08:36.835Z,100455.39
2022-07-29T10:11:13.328Z,100451.90
2022-07-29T10:13:40.864Z,100448.23
2022-07-29T10:16:09.047Z,100445.55
2022-07-29T10:18:38.806Z,100447.41
2022-07-29T10:21:07.526Z,100446.36
2022-07-29T10:23:46.422Z,100443.00
2022-07-29T10:26:16.541Z,100439.84
2022-07-29T10:28:44.247Z,100443.15
2022-07-29T10:31:21.333Z,100444.80
2022-07-29T10:34:02.198Z,100443.76
2022-07-29T10:36:47.185Z,100439.80
2022-07-29T10:39:27.179Z,100446.89
2022-07-29T10:42:20.139Z,100442.30
2022-07-29T10:44:57.313Z,100440.50
2022-07-29T10:47:26.573Z,100439.66
2022-07-29T10:49:59.116Z,100439.27
2022-07-29T10:52:57.799Z,100433.44
2022-07-29T10:55:43.356Z,100426.69
2022-07-29T10:58:16.198Z,100428.82
2022-07-29T11:00:47.614Z,100417.92
2022-07-29T11:03:49.696Z,100421.27
2022-07-29T11:06:26.967Z,100424.45
2022-07-29T11:09:18.157Z,100420.76
2022-07-29T11:11:51.545Z,100415.35
2022-07-29T11:14:40.660Z,100415.44
2022-07-29T11:17:08.281Z,100421.89
2022-07-29T11:19:40.370Z,100416.65
2022-07-29T11:22:31.682Z,100410.89
2022-07-29T11:25:14.824Z,100410.09
2022-07-29T11:27:45.927Z,100419.59
2022-07-29T11:30:14.584Z,100417.42
2022-07-29T11:32:44.617Z,100421.12
2022-07-29T11:35:18.858Z,100426.30
2022-07-29T11:37:55.242Z,100425.73
2022-07-29T11:40:23.616Z,100424.08
2022-07-29T11:42:52.405Z,100426.80
2022-07-29T11:45:44.312Z,100426.54
2022-07-29T11:48:29.099Z,100426.69
2022-07-29T11:50:59.113Z,100426.30
2022-07-29T11:53:29.073Z,100428.60
2022-07-29T11:56:02.697Z,100423.83
2022-07-29T11:58:32.187Z,100424.29
2022-07-29T12:01:04.531Z,100429.85
2022-07-29T12:06:21.177Z,100424.10
2022-07-29T12:07:03.649Z,100429.88
2022-07-29T12:08:48.982Z,100425.77
2022-07-29T12:11:22.375Z,100423.77
2022-07-29T12:13:51.464Z,100418.98
2022-07-29T12:16:25.611Z,100418.11
2022-07-29T12:18:59.594Z,100408.72
2022-07-29T12:21:29.037Z,100415.73
2022-07-29T12:24:01.841Z,100415.35
2022-07-29T12:26:34.362Z,100412.84
2022-07-29T12:29:03.978Z,100399.64
2022-07-29T12:31:43.806Z,100395.39
2022-07-29T12:34:14.295Z,100396.54
2022-07-29T12:36:42.885Z,100393.85
2022-07-29T12:39:12.733Z,100396.59
2022-07-29T12:41:40.341Z,100393.17
2022-07-29T12:44:08.171Z,100390.54
2022-07-29T12:46:35.900Z,100386.16
2022-07-29T12:49:04.897Z,100382.77
2022-07-29T12:51:34.311Z,100379.75
2022-07-29T12:54:07.726Z,100377.04
2022-07-29T12:56:44.145Z,100370.25
2022-07-29T12:59:17.933Z,100378.16
2022-07-29T13:01:47.392Z,100375.79
2022-07-29T13:04:25.744Z,100367.20
2022-07-29T13:07:00.488Z,100361.90
2022-07-29T13:09:38.701Z,100363.27
2022-07-29T13:12:10.208Z,100359.82
2022-07-29T13:14:39.268Z,100358.27
2022-07-29T13:17:08.354Z,100356.14
2022-07-29T13:19:38.167Z,100358.64
2022-07-29T13:22:06.206Z,100355.04
2022-07-29T13:24:34.227Z,100357.16
2022-07-29T13:27:01.768Z,100354.48
2022-07-29T13:29:33.843Z,100349.80
2022-07-29T13:32:01.689Z,100343.64
2022-07-29T13:34:29.358Z,100340.94
2022-07-29T13:36:56.875Z,100342.20
2022-07-29T13:39:24.453Z,100337.02
2022-07-29T13:41:52.767Z,100330.79
2022-07-29T13:44:20.551Z,100336.16
2022-07-29T13:46:48.143Z,100329.20
2022-07-29T13:49:15.835Z,100330.33
2022-07-29T13:51:43.763Z,100329.94
2022-07-29T13:54:11.397Z,100334.42
2022-07-29T13:56:38.930Z,100339.79
2022-07-29T13:59:08.009Z,100340.16
2022-07-29T14:01:35.780Z,100342.33
2022-07-29T14:04:03.807Z,100338.71
2022-07-29T14:06:31.392Z,100334.95
2022-07-29T14:08:58.925Z,100334.19
2022-07-29T14:11:26.641Z,100329.79
2022-07-29T14:13:54.177Z,100335.95
2022-07-29T14:16:21.783Z,100336.60
2022-07-29T14:18:49.507Z,100329.62
2022-07-29T14:21:17.796Z,100323.67
2022-07-29T14:23:45.355Z,100323.08
2022-07-29T14:26:15.847Z,100324.13
2022-07-29T14:28:49.576Z,100321.81
2022-07-29T14:31:17.408Z,100318.55
2022-07-29T14:33:46.287Z,100319.29
2022-07-29T14:36:17.262Z,100319.04
2022-07-29T14:38:45.172Z,100317.81
2022-07-29T14:41:13.551Z,100317.49
2022-07-29T14:43:41.419Z,100320.32
2022-07-29T14:46:12.001Z,100322.69
2022-07-29T14:48:39.608Z,100320.98
2022-07-29T14:51:07.149Z,100318.14
2022-07-29T14:53:34.979Z,100316.62
2022-07-29T14:56:15.278Z,100313.66
2022-07-29T14:58:51.650Z,100310.33
2022-07-29T15:01:19.738Z,100308.89
2022-07-29T15:03:47.331Z,100303.23
2022-07-29T15:06:15.070Z,100307.73
2022-07-29T15:08:42.778Z,100306.38
2022-07-29T15:11:10.343Z,100304.67
2022-07-29T15:13:38.165Z,100306.10
2022-07-29T15:16:06.989Z,100305.65
2022-07-29T15:18:34.604Z,100305.17
2022-07-29T15:21:02.702Z,100300.14
2022-07-29T15:23:30.805Z,100297.55
2022-07-29T15:25:58.388Z,100295.52
2022-07-29T15:28:25.999Z,100295.09
2022-07-29T15:30:54.787Z,100292.63
2022-07-29T15:33:22.385Z,100292.47
2022-07-29T15:35:49.980Z,100287.77
2022-07-29T15:38:20.170Z,100293.23
2022-07-29T15:40:56.400Z,100289.95
2022-07-29T15:43:23.996Z,100290.91
2022-07-29T15:46:12.352Z,100294.65
2022-07-29T15:48:42.109Z,100297.08
2022-07-29T15:51:09.692Z,100296.42
2022-07-29T15:53:37.530Z,100290.86
2022-07-29T15:56:06.609Z,100288.19
2022-07-29T15:58:34.526Z,100286.55
2022-07-29T16:01:02.126Z,100295.77
2022-07-29T16:03:30.105Z,100290.27
2022-07-29T16:05:57.864Z,100286.73
2022-07-29T16:08:25.635Z,100281.90
2022-07-29T16:10:53.269Z,100281.52
2022-07-29T16:13:20.993Z,100280.33
2022-07-29T16:16:02.537Z,100282.81
2022-07-29T16:18:30.734Z,100280.43
2022-07-29T16:20:58.474Z,100275.14
2022-07-29T16:23:26.127Z,100272.42
2022-07-29T16:26:01.615Z,100271.11
2022-07-29T16:28:30.005Z,100269.34
2022-07-29T16:30:57.702Z,100270.97
2022-07-29T16:33:25.425Z,100271.19
2022-07-29T16:35:53.567Z,100270.45
2022-07-29T16:38:21.137Z,100264.69
2022-07-29T16:40:49.505Z,100266.33
2022-07-29T16:43:17.163Z,100268.23
2022-07-29T16:45:46.233Z,100267.48
2022-07-29T16:48:14.477Z,100267.09
2022-07-29T16:50:43.593Z,100267.94
2022-07-29T16:53:11.619Z,100269.33
2022-07-29T16:55:42.289Z,100268.23
2022-07-29T16:58:10.313Z,100265.94
2022-07-29T17:00:38.241Z,100268.23
2022-07-29T17:03:06.501Z,100264.80
2022-07-29T17:05:50.653Z,100262.80
2022-07-29T17:08:22.139Z,100263.67
2022-07-29T17:10:49.959Z,100262.44
2022-07-29T17:13:17.471Z,100260.45
2022-07-29T17:15:45.288Z,100256.31
2022-07-29T17:18:13.136Z,100254.21
2022-07-29T17:20:41.854Z,100257.79
2022-07-29T17:23:10.234Z,100262.61
2022-07-29T17:25:37.932Z,100265.60
2022-07-29T17:28:06.775Z,100266.23
2022-07-29T17:30:34.360Z,100269.55
2022-07-29T17:33:01.973Z,100269.66
2022-07-29T17:35:47.949Z,100267.13
2022-07-29T17:38:15.552Z,100272.88
2022-07-29T17:40:43.130Z,100270.42
2022-07-29T17:43:10.849Z,100273.70
2022-07-29T17:45:48.839Z,100276.75
2022-07-29T17:48:18.532Z,100277.45
2022-07-29T17:50:48.627Z,100283.31
2022-07-29T17:53:16.864Z,100282.55
2022-07-29T17:55:44.966Z,100288.11
2022-07-29T17:58:12.944Z,100289.98
2022-07-29T18:00:40.684Z,100291.27
2022-07-29T18:03:08.627Z,100291.91
2022-07-29T18:05:36.433Z,100292.31
2022-07-29T18:08:04.495Z,100293.25
2022-07-29T18:10:32.603Z,100291.48
2022-07-29T18:13:00.346Z,100293.84
2022-07-29T18:15:30.045Z,100291.11
2022-07-29T18:17:58.138Z,100291.84
2022-07-29T18:20:26.676Z,100292.87
2022-07-29T18:22:54.366Z,100295.69
2022-07-29T18:25:22.158Z,100297.45
2022-07-29T18:27:49.745Z,100294.84
2022-07-29T18:30:18.543Z,100297.57
2022-07-29T18:33:04.926Z,100300.92
2022-07-29T18:35:34.365Z,100300.65
2022-07-29T18:38:03.162Z,100298.27
2022-07-29T18:40:31.606Z,100294.43
2022-07-29T18:42:59.206Z,100293.41
2022-07-29T18:45:28.736Z,100292.12
2022-07-29T18:47:56.680Z,100292.80
2022-07-29T18:50:28.961Z,100293.77
2022-07-29T18:52:57.954Z,100288.70
2022-07-29T18:55:26.659Z,100290.48
2022-07-29T18:57:56.862Z,100284.90
2022-07-29T19:00:29.454Z,100286.15
2022-07-29T19:02:57.015Z,100287.73
2022-07-29T19:05:24.827Z,100287.89
2022-07-29T19:07:54.126Z,100291.15
2022-07-29T19:10:22.264Z,100291.27
2022-07-29T19:12:49.942Z,100291.16
2022-07-29T19:15:20.509Z,100289.87
2022-07-29T19:17:48.809Z,100286.52
2022-07-29T19:20:16.684Z,100293.71
2022-07-29T19:22:44.852Z,100292.09
2022-07-29T19:25:12.601Z,100296.68
2022-07-29T19:27:41.129Z,100290.73
2022-07-29T19:30:10.754Z,100293.64
2022-07-29T19:32:38.758Z,100290.94
2022-07-29T19:35:27.660Z,100298.80
2022-07-29T19:37:57.654Z,100296.04
2022-07-29T19:40:26.517Z,100295.10
2022-07-29T19:42:55.658Z,100289.88
2022-07-29T19:45:24.472Z,100292.81
2022-07-29T19:47:52.126Z,100286.10
2022-07-29T19:50:19.878Z,100284.86
2022-07-29T19:52:48.337Z,100284.98
2022-07-29T19:55:16.291Z,100285.17
2022-07-29T19:57:46.669Z,100285.63
2022-07-29T20:00:17.232Z,100287.48
2022-07-29T20:02:48.704Z,100289.34
2022-07-29T20:05:16.672Z,100291.50
2022-07-29T20:07:46.330Z,100297.72
2022-07-29T20:10:14.421Z,100294.85
2022-07-29T20:12:43.085Z,100297.07
2022-07-29T20:15:16.317Z,100298.82
2022-07-29T20:17:44.672Z,100294.15
2022-07-29T20:20:12.564Z,100294.96
2022-07-29T20:22:40.504Z,100293.09
2022-07-29T20:25:09.405Z,100298.77
2022-07-29T20:27:39.815Z,100299.52
2022-07-29T20:30:12.832Z,100297.71
2022-07-29T20:32:40.999Z,100298.45
2022-07-29T20:35:11.393Z,100303.42
2022-07-29T20:37:52.210Z,100306.38
2022-07-29T20:40:25.456Z,100307.80
2022-07-29T20:42:57.533Z,100307.11
2022-07-29T20:45:25.306Z,100309.30
2022-07-29T20:47:54.462Z,100315.25
2022-07-29T20:50:24.320Z,100314.16
2022-07-29T20:52:52.611Z,100316.27
2022-07-29T20:55:22.182Z,100317.91
2022-07-29T20:57:51.459Z,100319.73
2022-07-29T21:00:19.271Z,100315.29
2022-07-29T21:02:47.609Z,100316.55
2022-07-29T21:05:15.403Z,100313.92
2022-07-29T21:07:43.077Z,100312.66
2022-07-29T21:10:11.241Z,100312.71
2022-07-29T21:12:39.139Z,100305.55
2022-07-29T21:15:12.806Z,100301.36
2022-07-29T21:17:46.061Z,100291.79
2022-07-29T21:20:14.983Z,100285.55
2022-07-29T21:22:43.112Z,100278.02
2022-07-29T21:25:14.208Z,100283.79
2022-07-29T21:28:00.143Z,100287.22
2022-07-29T21:30:28.097Z,100285.75
2022-07-29T21:32:55.842Z,100283.69
2022-07-29T21:36:06.243Z,100278.91
2022-07-29T21:38:11.505Z,100270.39
2022-07-29T21:40:39.694Z,100267.67
2022-07-29T21:43:07.279Z,100266.38
2022-07-29T21:45:37.699Z,100275.24
2022-07-29T21:48:06.586Z,100288.36
2022-07-29T21:50:34.744Z,100287.88
2022-07-29T21:53:02.287Z,100286.88
2022-07-29T21:55:32.561Z,100285.02
2022-07-29T21:58:00.270Z,100288.89
2022-07-29T22:00:28.155Z,100294.03
2022-07-29T22:02:58.687Z,100297.22
2022-07-29T22:05:26.295Z,100292.92
2022-07-29T22:07:56.706Z,100290.61
2022-07-29T22:10:25.734Z,100280.81
2022-07-29T22:12:54.923Z,100273.07
2022-07-29T22:15:23.120Z,100269.65
2022-07-29T22:17:51.531Z,100269.34
2022-07-29T22:20:19.434Z,100277.84
2022-07-29T22:22:50.327Z,100284.52
2022-07-29T22:25:17.904Z,100283.36
2022-07-29T22:27:45.545Z,100275.70
2022-07-29T22:30:13.909Z,100261.59
2022-07-29T22:32:43.119Z,100253.46
2022-07-29T22:35:11.278Z,100253.44
2022-07-29T22:37:39.357Z,100251.02
2022-07-29T22:40:09.017Z,100252.56
2022-07-29T22:42:36.672Z,100251.39
2022-07-29T22:45:10.506Z,100248.36
2022-07-29T22:47:48.119Z,100245.27
2022-07-29T22:50:17.215Z,100239.82
2022-07-29T22:52:45.423Z,100239.50
2022-07-29T22:55:14.414Z,100231.10
2022-07-29T22:57:42.602Z,100234.77
2022-07-29T23:00:12.847Z,100230.70
2022-07-29T23:02:41.352Z,100228.09
2022-07-29T23:05:10.728Z,100227.88
2022-07-29T23:07:38.450Z,100228.55
2022-07-29T23:10:09.849Z,100229.88
2022-07-29T23:12:38.722Z,100236.26
2022-07-29T23:15:07.433Z,100232.48
2022-07-29T23:17:36.318Z,100225.30
2022-07-29T23:20:08.253Z,100219.89
2022-07-29T23:22:37.732Z,100214.75
2022-07-29T23:25:06.754Z,100209.67
2022-07-29T23:27:36.010Z,100210.17
2022-07-29T23:30:05.932Z,100209.89
2022-07-29T23:32:34.291Z,100206.34
2022-07-29T23:35:02.877Z,100206.94
2022-07-29T23:37:30.743Z,100206.92
2022-07-29T23:39:58.367Z,100208.83
2022-07-29T23:42:28.560Z,100209.20
2022-07-29T23:44:56.732Z,100204.82
2022-07-29T23:47:26.089Z,100202.27
2022-07-29T23:49:54.977Z,100199.15
2022-07-29T23:52:22.779Z,100195.69
2022-07-29T23:54:50.561Z,100194.27
2022-07-29T23:57:22.056Z,100192.11
2022-07-29T23:59:50.214Z,100190.85
